sensor_id;sensor_type;location;lat;lon;timestamp;P1;durP1;ratioP1;P2;durP2;ratioP2
27402;SDS011;14862;49.494;8.530;2023-04-06T00:01:00;14.75;;;6.88;;
27402;SDS011;14862;49.494;8.530;2023-04-06T00:03:25;17.33;;;6.50;;
27402;SDS011;14862;49.494;8.530;2023-04-06T00:05:50;13.05;;;6.53;;
27402;SDS011;14862;49.494;8.530;2023-04-06T00:08:16;12.05;;;6.20;;
27402;SDS011;14862;49.494;8.530;2023-04-06T00:10:41;13.60;;;6.15;;
27402;SDS011;14862;49.494;8.530;2023-04-06T00:13:06;12.80;;;7.15;;
27402;SDS011;14862;49.494;8.530;2023-04-06T00:15:32;15.30;;;7.10;;
27402;SDS011;14862;49.494;8.530;2023-04-06T00:17:58;11.35;;;7.55;;
27402;SDS011;14862;49.494;8.530;2023-04-06T00:20:23;9.50;;;6.88;;
27402;SDS011;14862;49.494;8.530;2023-04-06T00:22:48;12.25;;;7.15;;
27402;SDS011;14862;49.494;8.530;2023-04-06T00:25:14;9.77;;;6.75;;
27402;SDS011;14862;49.494;8.530;2023-04-06T00:27:40;11.95;;;7.78;;
27402;SDS011;14862;49.494;8.530;2023-04-06T00:30:06;17.73;;;7.63;;
27402;SDS011;14862;49.494;8.530;2023-04-06T00:32:31;18.75;;;7.47;;
27402;SDS011;14862;49.494;8.530;2023-04-06T00:34:56;11.38;;;8.07;;
27402;SDS011;14862;49.494;8.530;2023-04-06T00:37:22;14.40;;;7.57;;
27402;SDS011;14862;49.494;8.530;2023-04-06T00:39:47;15.43;;;7.80;;
27402;SDS011;14862;49.494;8.530;2023-04-06T00:42:13;12.38;;;7.38;;
27402;SDS011;14862;49.494;8.530;2023-04-06T00:44:39;25.95;;;12.38;;
27402;SDS011;14862;49.494;8.530;2023-04-06T00:47:04;10.40;;;7.70;;
27402;SDS011;14862;49.494;8.530;2023-04-06T00:49:29;14.60;;;8.32;;
27402;SDS011;14862;49.494;8.530;2023-04-06T00:51:55;14.10;;;8.43;;
27402;SDS011;14862;49.494;8.530;2023-04-06T00:54:20;12.80;;;8.23;;
27402;SDS011;14862;49.494;8.530;2023-04-06T00:56:45;16.90;;;8.05;;
27402;SDS011;14862;49.494;8.530;2023-04-06T00:59:11;18.65;;;8.30;;
27402;SDS011;14862;49.494;8.530;2023-04-06T01:01:37;18.15;;;8.40;;
27402;SDS011;14862;49.494;8.530;2023-04-06T01:04:02;22.92;;;10.60;;
27402;SDS011;14862;49.494;8.530;2023-04-06T01:06:28;17.83;;;9.05;;
27402;SDS011;14862;49.494;8.530;2023-04-06T01:08:53;17.88;;;9.40;;
27402;SDS011;14862;49.494;8.530;2023-04-06T01:11:18;17.77;;;9.60;;
27402;SDS011;14862;49.494;8.530;2023-04-06T01:13:43;20.17;;;9.43;;
27402;SDS011;14862;49.494;8.530;2023-04-06T01:16:09;26.80;;;10.45;;
27402;SDS011;14862;49.494;8.530;2023-04-06T01:18:38;24.60;;;11.10;;
27402;SDS011;14862;49.494;8.530;2023-04-06T01:21:03;39.60;;;12.20;;
27402;SDS011;14862;49.494;8.530;2023-04-06T01:23:28;30.35;;;12.07;;
27402;SDS011;14862;49.494;8.530;2023-04-06T01:25:54;33.95;;;12.93;;
27402;SDS011;14862;49.494;8.530;2023-04-06T01:28:19;26.95;;;11.38;;
27402;SDS011;14862;49.494;8.530;2023-04-06T01:30:45;24.02;;;11.30;;
27402;SDS011;14862;49.494;8.530;2023-04-06T01:33:10;26.92;;;11.40;;
27402;SDS011;14862;49.494;8.530;2023-04-06T01:35:35;27.95;;;13.20;;
27402;SDS011;14862;49.494;8.530;2023-04-06T01:38:01;29.10;;;12.20;;
27402;SDS011;14862;49.494;8.530;2023-04-06T01:40:26;31.73;;;13.25;;
27402;SDS011;14862;49.494;8.530;2023-04-06T01:42:52;40.30;;;14.15;;
27402;SDS011;14862;49.494;8.530;2023-04-06T01:45:17;40.65;;;16.25;;
27402;SDS011;14862;49.494;8.530;2023-04-06T01:47:42;39.03;;;15.70;;
27402;SDS011;14862;49.494;8.530;2023-04-06T01:50:07;44.00;;;15.43;;
27402;SDS011;14862;49.494;8.530;2023-04-06T01:52:33;40.50;;;15.25;;
27402;SDS011;14862;49.494;8.530;2023-04-06T01:54:58;38.40;;;14.23;;
27402;SDS011;14862;49.494;8.530;2023-04-06T01:57:23;35.30;;;13.43;;
27402;SDS011;14862;49.494;8.530;2023-04-06T01:59:48;41.28;;;14.40;;
27402;SDS011;14862;49.494;8.530;2023-04-06T02:02:14;32.40;;;14.05;;
27402;SDS011;14862;49.494;8.530;2023-04-06T02:04:39;35.88;;;14.32;;
27402;SDS011;14862;49.494;8.530;2023-04-06T02:07:04;25.73;;;12.75;;
27402;SDS011;14862;49.494;8.530;2023-04-06T02:09:30;30.05;;;14.55;;
27402;SDS011;14862;49.494;8.530;2023-04-06T02:11:55;26.25;;;12.93;;
27402;SDS011;14862;49.494;8.530;2023-04-06T02:14:20;26.52;;;12.43;;
27402;SDS011;14862;49.494;8.530;2023-04-06T02:16:46;28.65;;;11.65;;
27402;SDS011;14862;49.494;8.530;2023-04-06T02:19:11;24.90;;;11.15;;
27402;SDS011;14862;49.494;8.530;2023-04-06T02:21:36;26.33;;;12.95;;
27402;SDS011;14862;49.494;8.530;2023-04-06T02:24:01;26.85;;;12.30;;
27402;SDS011;14862;49.494;8.530;2023-04-06T02:26:27;24.02;;;12.13;;
27402;SDS011;14862;49.494;8.530;2023-04-06T02:28:52;25.95;;;11.98;;
27402;SDS011;14862;49.494;8.530;2023-04-06T02:31:17;24.50;;;12.13;;
27402;SDS011;14862;49.494;8.530;2023-04-06T02:33:42;23.20;;;11.50;;
27402;SDS011;14862;49.494;8.530;2023-04-06T02:36:08;22.05;;;11.27;;
27402;SDS011;14862;49.494;8.530;2023-04-06T02:38:33;38.28;;;14.80;;
27402;SDS011;14862;49.494;8.530;2023-04-06T02:40:58;21.63;;;12.77;;
27402;SDS011;14862;49.494;8.530;2023-04-06T02:43:24;25.38;;;11.95;;
27402;SDS011;14862;49.494;8.530;2023-04-06T02:45:49;24.27;;;11.18;;
27402;SDS011;14862;49.494;8.530;2023-04-06T02:48:14;25.38;;;13.27;;
27402;SDS011;14862;49.494;8.530;2023-04-06T02:50:40;21.85;;;12.68;;
27402;SDS011;14862;49.494;8.530;2023-04-06T02:53:05;22.33;;;12.68;;
27402;SDS011;14862;49.494;8.530;2023-04-06T02:55:30;20.90;;;12.45;;
27402;SDS011;14862;49.494;8.530;2023-04-06T02:57:56;21.23;;;12.43;;
27402;SDS011;14862;49.494;8.530;2023-04-06T03:00:21;20.80;;;12.07;;
27402;SDS011;14862;49.494;8.530;2023-04-06T03:02:46;21.65;;;11.80;;
27402;SDS011;14862;49.494;8.530;2023-04-06T03:05:11;23.00;;;12.13;;
27402;SDS011;14862;49.494;8.530;2023-04-06T03:07:37;23.55;;;12.45;;
27402;SDS011;14862;49.494;8.530;2023-04-06T03:10:02;20.23;;;11.23;;
27402;SDS011;14862;49.494;8.530;2023-04-06T03:12:27;24.73;;;12.13;;
27402;SDS011;14862;49.494;8.530;2023-04-06T03:14:53;21.40;;;11.95;;
27402;SDS011;14862;49.494;8.530;2023-04-06T03:17:18;18.70;;;12.30;;
27402;SDS011;14862;49.494;8.530;2023-04-06T03:19:43;20.70;;;11.93;;
27402;SDS011;14862;49.494;8.530;2023-04-06T03:22:08;22.67;;;11.80;;
27402;SDS011;14862;49.494;8.530;2023-04-06T03:24:33;19.60;;;10.98;;
27402;SDS011;14862;49.494;8.530;2023-04-06T03:26:59;21.10;;;11.80;;
27402;SDS011;14862;49.494;8.530;2023-04-06T03:29:25;22.15;;;12.00;;
27402;SDS011;14862;49.494;8.530;2023-04-06T03:31:50;25.02;;;12.65;;
27402;SDS011;14862;49.494;8.530;2023-04-06T03:34:15;22.17;;;12.75;;
27402;SDS011;14862;49.494;8.530;2023-04-06T03:36:40;23.73;;;11.95;;
27402;SDS011;14862;49.494;8.530;2023-04-06T03:39:06;18.85;;;12.10;;
27402;SDS011;14862;49.494;8.530;2023-04-06T03:41:31;21.38;;;11.32;;
27402;SDS011;14862;49.494;8.530;2023-04-06T03:43:56;22.95;;;11.48;;
27402;SDS011;14862;49.494;8.530;2023-04-06T03:46:22;23.75;;;13.60;;
27402;SDS011;14862;49.494;8.530;2023-04-06T03:48:48;25.63;;;13.10;;
27402;SDS011;14862;49.494;8.530;2023-04-06T03:51:13;22.77;;;12.60;;
27402;SDS011;14862;49.494;8.530;2023-04-06T03:53:38;21.63;;;12.18;;
27402;SDS011;14862;49.494;8.530;2023-04-06T03:56:04;20.00;;;11.65;;
27402;SDS011;14862;49.494;8.530;2023-04-06T03:58:29;19.50;;;11.98;;
27402;SDS011;14862;49.494;8.530;2023-04-06T04:00:55;21.48;;;12.60;;
27402;SDS011;14862;49.494;8.530;2023-04-06T04:03:20;20.50;;;12.30;;
27402;SDS011;14862;49.494;8.530;2023-04-06T04:05:48;23.70;;;12.63;;
27402;SDS011;14862;49.494;8.530;2023-04-06T04:08:13;21.40;;;12.75;;
27402;SDS011;14862;49.494;8.530;2023-04-06T04:10:38;20.80;;;13.88;;
27402;SDS011;14862;49.494;8.530;2023-04-06T04:13:03;22.17;;;13.25;;
27402;SDS011;14862;49.494;8.530;2023-04-06T04:15:29;23.75;;;13.13;;
27402;SDS011;14862;49.494;8.530;2023-04-06T04:17:54;20.35;;;12.38;;
27402;SDS011;14862;49.494;8.530;2023-04-06T04:20:20;19.77;;;11.40;;
27402;SDS011;14862;49.494;8.530;2023-04-06T04:22:45;18.33;;;11.27;;
27402;SDS011;14862;49.494;8.530;2023-04-06T04:25:10;20.98;;;12.48;;
27402;SDS011;14862;49.494;8.530;2023-04-06T04:27:35;27.83;;;13.20;;
27402;SDS011;14862;49.494;8.530;2023-04-06T04:30:01;21.38;;;12.20;;
27402;SDS011;14862;49.494;8.530;2023-04-06T04:32:26;20.55;;;11.95;;
27402;SDS011;14862;49.494;8.530;2023-04-06T04:34:52;21.05;;;11.77;;
27402;SDS011;14862;49.494;8.530;2023-04-06T04:37:17;21.60;;;13.35;;
27402;SDS011;14862;49.494;8.530;2023-04-06T04:39:43;24.25;;;12.90;;
27402;SDS011;14862;49.494;8.530;2023-04-06T04:42:08;20.27;;;12.60;;
27402;SDS011;14862;49.494;8.530;2023-04-06T04:44:33;21.23;;;12.45;;
27402;SDS011;14862;49.494;8.530;2023-04-06T04:46:58;21.45;;;12.95;;
27402;SDS011;14862;49.494;8.530;2023-04-06T04:49:24;25.35;;;13.02;;
27402;SDS011;14862;49.494;8.530;2023-04-06T04:51:49;22.83;;;13.32;;
27402;SDS011;14862;49.494;8.530;2023-04-06T04:54:17;23.25;;;13.25;;
27402;SDS011;14862;49.494;8.530;2023-04-06T04:56:42;22.15;;;12.43;;
27402;SDS011;14862;49.494;8.530;2023-04-06T04:59:07;26.33;;;13.90;;
27402;SDS011;14862;49.494;8.530;2023-04-06T05:01:33;22.42;;;13.07;;
27402;SDS011;14862;49.494;8.530;2023-04-06T05:03:58;23.08;;;13.40;;
27402;SDS011;14862;49.494;8.530;2023-04-06T05:06:23;20.70;;;13.25;;
27402;SDS011;14862;49.494;8.530;2023-04-06T05:08:48;20.42;;;12.38;;
27402;SDS011;14862;49.494;8.530;2023-04-06T05:11:14;21.23;;;12.57;;
27402;SDS011;14862;49.494;8.530;2023-04-06T05:13:39;18.48;;;11.52;;
27402;SDS011;14862;49.494;8.530;2023-04-06T05:16:05;18.90;;;12.32;;
27402;SDS011;14862;49.494;8.530;2023-04-06T05:18:30;19.02;;;11.68;;
27402;SDS011;14862;49.494;8.530;2023-04-06T05:20:55;17.05;;;10.25;;
27402;SDS011;14862;49.494;8.530;2023-04-06T05:23:21;14.27;;;9.32;;
27402;SDS011;14862;49.494;8.530;2023-04-06T05:25:46;18.02;;;10.60;;
27402;SDS011;14862;49.494;8.530;2023-04-06T05:28:11;13.13;;;9.35;;
27402;SDS011;14862;49.494;8.530;2023-04-06T05:30:39;15.98;;;9.23;;
27402;SDS011;14862;49.494;8.530;2023-04-06T05:33:04;14.02;;;9.57;;
27402;SDS011;14862;49.494;8.530;2023-04-06T05:35:30;15.10;;;9.48;;
27402;SDS011;14862;49.494;8.530;2023-04-06T05:37:55;16.65;;;9.07;;
27402;SDS011;14862;49.494;8.530;2023-04-06T05:40:20;14.55;;;9.70;;
27402;SDS011;14862;49.494;8.530;2023-04-06T05:42:46;12.85;;;8.23;;
27402;SDS011;14862;49.494;8.530;2023-04-06T05:45:11;10.13;;;7.72;;
27402;SDS011;14862;49.494;8.530;2023-04-06T05:47:42;12.07;;;7.97;;
27402;SDS011;14862;49.494;8.530;2023-04-06T05:50:07;15.35;;;7.82;;
27402;SDS011;14862;49.494;8.530;2023-04-06T05:52:33;14.27;;;8.15;;
27402;SDS011;14862;49.494;8.530;2023-04-06T05:54:58;11.25;;;7.72;;
27402;SDS011;14862;49.494;8.530;2023-04-06T05:57:23;14.30;;;7.25;;
27402;SDS011;14862;49.494;8.530;2023-04-06T05:59:48;14.75;;;7.60;;
27402;SDS011;14862;49.494;8.530;2023-04-06T06:02:14;10.25;;;7.15;;
27402;SDS011;14862;49.494;8.530;2023-04-06T06:04:39;11.73;;;6.88;;
27402;SDS011;14862;49.494;8.530;2023-04-06T06:07:05;15.48;;;6.95;;
27402;SDS011;14862;49.494;8.530;2023-04-06T06:09:30;15.40;;;7.47;;
27402;SDS011;14862;49.494;8.530;2023-04-06T06:11:55;13.10;;;6.63;;
27402;SDS011;14862;49.494;8.530;2023-04-06T06:14:20;14.40;;;6.40;;
27402;SDS011;14862;49.494;8.530;2023-04-06T06:16:46;10.10;;;6.57;;
27402;SDS011;14862;49.494;8.530;2023-04-06T06:19:12;10.70;;;6.70;;
27402;SDS011;14862;49.494;8.530;2023-04-06T06:21:37;17.27;;;7.57;;
27402;SDS011;14862;49.494;8.530;2023-04-06T06:24:02;10.23;;;7.15;;
27402;SDS011;14862;49.494;8.530;2023-04-06T06:26:28;9.85;;;6.82;;
27402;SDS011;14862;49.494;8.530;2023-04-06T06:28:53;9.20;;;7.20;;
27402;SDS011;14862;49.494;8.530;2023-04-06T06:31:18;7.47;;;6.68;;
27402;SDS011;14862;49.494;8.530;2023-04-06T06:33:47;12.25;;;7.57;;
27402;SDS011;14862;49.494;8.530;2023-04-06T06:36:15;10.55;;;7.38;;
27402;SDS011;14862;49.494;8.530;2023-04-06T06:38:40;13.35;;;7.13;;
27402;SDS011;14862;49.494;8.530;2023-04-06T06:41:05;12.88;;;7.72;;
27402;SDS011;14862;49.494;8.530;2023-04-06T06:43:31;11.57;;;7.97;;
27402;SDS011;14862;49.494;8.530;2023-04-06T06:45:56;11.23;;;7.93;;
27402;SDS011;14862;49.494;8.530;2023-04-06T06:48:21;10.90;;;7.20;;
27402;SDS011;14862;49.494;8.530;2023-04-06T06:50:47;8.55;;;6.82;;
27402;SDS011;14862;49.494;8.530;2023-04-06T06:53:13;10.82;;;7.15;;
27402;SDS011;14862;49.494;8.530;2023-04-06T06:55:38;8.05;;;6.30;;
27402;SDS011;14862;49.494;8.530;2023-04-06T06:58:03;9.05;;;6.63;;
27402;SDS011;14862;49.494;8.530;2023-04-06T07:00:28;7.95;;;7.00;;
27402;SDS011;14862;49.494;8.530;2023-04-06T07:02:54;12.55;;;7.55;;
27402;SDS011;14862;49.494;8.530;2023-04-06T07:05:19;10.15;;;7.25;;
27402;SDS011;14862;49.494;8.530;2023-04-06T07:07:45;10.70;;;7.75;;
27402;SDS011;14862;49.494;8.530;2023-04-06T07:10:10;8.13;;;7.03;;
27402;SDS011;14862;49.494;8.530;2023-04-06T07:12:35;9.73;;;6.80;;
27402;SDS011;14862;49.494;8.530;2023-04-06T07:15:00;9.93;;;6.87;;
27402;SDS011;14862;49.494;8.530;2023-04-06T07:17:27;9.13;;;7.90;;
27402;SDS011;14862;49.494;8.530;2023-04-06T07:19:52;9.93;;;7.75;;
27402;SDS011;14862;49.494;8.530;2023-04-06T07:22:17;16.88;;;8.18;;
27402;SDS011;14862;49.494;8.530;2023-04-06T07:24:43;12.18;;;7.97;;
27402;SDS011;14862;49.494;8.530;2023-04-06T07:27:08;14.18;;;8.43;;
27402;SDS011;14862;49.494;8.530;2023-04-06T07:29:33;10.55;;;8.20;;
27402;SDS011;14862;49.494;8.530;2023-04-06T07:31:59;10.55;;;7.47;;
27402;SDS011;14862;49.494;8.530;2023-04-06T07:34:24;11.18;;;7.78;;
27402;SDS011;14862;49.494;8.530;2023-04-06T07:36:49;9.35;;;6.93;;
27402;SDS011;14862;49.494;8.530;2023-04-06T07:39:15;11.82;;;7.07;;
27402;SDS011;14862;49.494;8.530;2023-04-06T07:41:40;9.93;;;7.75;;
27402;SDS011;14862;49.494;8.530;2023-04-06T07:44:06;12.52;;;8.23;;
27402;SDS011;14862;49.494;8.530;2023-04-06T07:46:31;9.43;;;8.07;;
27402;SDS011;14862;49.494;8.530;2023-04-06T07:48:57;8.10;;;7.30;;
27402;SDS011;14862;49.494;8.530;2023-04-06T07:51:22;8.55;;;6.90;;
27402;SDS011;14862;49.494;8.530;2023-04-06T07:53:48;10.20;;;6.85;;
27402;SDS011;14862;49.494;8.530;2023-04-06T07:56:13;11.40;;;7.07;;
27402;SDS011;14862;49.494;8.530;2023-04-06T07:58:40;8.70;;;7.03;;
27402;SDS011;14862;49.494;8.530;2023-04-06T08:01:05;14.18;;;7.97;;
27402;SDS011;14862;49.494;8.530;2023-04-06T08:03:32;12.02;;;7.70;;
27402;SDS011;14862;49.494;8.530;2023-04-06T08:05:58;9.57;;;7.93;;
27402;SDS011;14862;49.494;8.530;2023-04-06T08:08:23;9.50;;;7.20;;
27402;SDS011;14862;49.494;8.530;2023-04-06T08:10:48;9.15;;;6.40;;
27402;SDS011;14862;49.494;8.530;2023-04-06T08:13:14;8.65;;;7.60;;
27402;SDS011;14862;49.494;8.530;2023-04-06T08:15:40;8.90;;;7.30;;
27402;SDS011;14862;49.494;8.530;2023-04-06T08:18:05;9.85;;;7.68;;
27402;SDS011;14862;49.494;8.530;2023-04-06T08:20:30;13.35;;;6.90;;
27402;SDS011;14862;49.494;8.530;2023-04-06T08:22:55;11.18;;;6.85;;
27402;SDS011;14862;49.494;8.530;2023-04-06T08:25:21;11.67;;;7.50;;
27402;SDS011;14862;49.494;8.530;2023-04-06T08:27:46;12.63;;;6.90;;
27402;SDS011;14862;49.494;8.530;2023-04-06T08:30:11;11.35;;;7.53;;
27402;SDS011;14862;49.494;8.530;2023-04-06T08:32:37;14.18;;;7.25;;
27402;SDS011;14862;49.494;8.530;2023-04-06T08:35:02;11.18;;;7.90;;
27402;SDS011;14862;49.494;8.530;2023-04-06T08:37:27;9.90;;;6.82;;
27402;SDS011;14862;49.494;8.530;2023-04-06T08:39:53;9.30;;;7.32;;
27402;SDS011;14862;49.494;8.530;2023-04-06T08:42:21;7.93;;;6.53;;
27402;SDS011;14862;49.494;8.530;2023-04-06T08:44:48;8.15;;;7.22;;
27402;SDS011;14862;49.494;8.530;2023-04-06T08:47:13;8.57;;;7.68;;
27402;SDS011;14862;49.494;8.530;2023-04-06T08:49:38;10.30;;;6.72;;
27402;SDS011;14862;49.494;8.530;2023-04-06T08:52:07;7.75;;;6.57;;
27402;SDS011;14862;49.494;8.530;2023-04-06T08:54:33;10.02;;;7.13;;
27402;SDS011;14862;49.494;8.530;2023-04-06T08:56:58;9.77;;;6.93;;
27402;SDS011;14862;49.494;8.530;2023-04-06T08:59:24;11.38;;;6.75;;
27402;SDS011;14862;49.494;8.530;2023-04-06T09:01:50;7.57;;;6.75;;
27402;SDS011;14862;49.494;8.530;2023-04-06T09:04:16;8.02;;;6.78;;
27402;SDS011;14862;49.494;8.530;2023-04-06T09:06:42;9.25;;;6.72;;
27402;SDS011;14862;49.494;8.530;2023-04-06T09:09:07;9.13;;;7.22;;
27402;SDS011;14862;49.494;8.530;2023-04-06T09:11:43;7.30;;;6.60;;
27402;SDS011;14862;49.494;8.530;2023-04-06T09:14:08;8.32;;;6.95;;
27402;SDS011;14862;49.494;8.530;2023-04-06T09:16:40;7.55;;;6.40;;
27402;SDS011;14862;49.494;8.530;2023-04-06T09:19:06;7.60;;;6.80;;
27402;SDS011;14862;49.494;8.530;2023-04-06T09:21:32;7.60;;;6.53;;
27402;SDS011;14862;49.494;8.530;2023-04-06T09:23:58;9.38;;;6.70;;
27402;SDS011;14862;49.494;8.530;2023-04-06T09:26:24;7.53;;;6.82;;
27402;SDS011;14862;49.494;8.530;2023-04-06T09:28:55;8.57;;;7.78;;
27402;SDS011;14862;49.494;8.530;2023-04-06T09:31:22;11.30;;;7.60;;
27402;SDS011;14862;49.494;8.530;2023-04-06T09:33:47;10.18;;;7.13;;
27402;SDS011;14862;49.494;8.530;2023-04-06T09:36:12;8.77;;;6.30;;
27402;SDS011;14862;49.494;8.530;2023-04-06T09:41:24;7.80;;;6.05;;
27402;SDS011;14862;49.494;8.530;2023-04-06T09:43:51;8.57;;;6.47;;
27402;SDS011;14862;49.494;8.530;2023-04-06T09:46:16;7.22;;;6.10;;
27402;SDS011;14862;49.494;8.530;2023-04-06T09:48:43;7.70;;;6.07;;
27402;SDS011;14862;49.494;8.530;2023-04-06T09:51:08;7.85;;;6.63;;
27402;SDS011;14862;49.494;8.530;2023-04-06T09:53:37;8.95;;;6.50;;
27402;SDS011;14862;49.494;8.530;2023-04-06T09:56:03;8.68;;;6.57;;
27402;SDS011;14862;49.494;8.530;2023-04-06T09:58:32;6.68;;;5.97;;
27402;SDS011;14862;49.494;8.530;2023-04-06T10:01:01;7.57;;;6.38;;
27402;SDS011;14862;49.494;8.530;2023-04-06T10:03:30;8.13;;;6.55;;
27402;SDS011;14862;49.494;8.530;2023-04-06T10:06:00;8.70;;;6.63;;
27402;SDS011;14862;49.494;8.530;2023-04-06T10:08:27;10.80;;;7.57;;
27402;SDS011;14862;49.494;8.530;2023-04-06T10:10:53;9.55;;;7.43;;
27402;SDS011;14862;49.494;8.530;2023-04-06T10:13:18;8.75;;;6.40;;
27402;SDS011;14862;49.494;8.530;2023-04-06T10:15:44;10.45;;;6.53;;
27402;SDS011;14862;49.494;8.530;2023-04-06T10:18:09;13.55;;;7.65;;
27402;SDS011;14862;49.494;8.530;2023-04-06T10:20:42;12.07;;;7.38;;
27402;SDS011;14862;49.494;8.530;2023-04-06T10:23:10;8.40;;;7.20;;
27402;SDS011;14862;49.494;8.530;2023-04-06T10:25:51;19.30;;;7.40;;
27402;SDS011;14862;49.494;8.530;2023-04-06T10:28:16;8.90;;;7.35;;
27402;SDS011;14862;49.494;8.530;2023-04-06T10:30:44;10.35;;;7.43;;
27402;SDS011;14862;49.494;8.530;2023-04-06T10:33:17;9.13;;;6.70;;
27402;SDS011;14862;49.494;8.530;2023-04-06T10:35:43;10.93;;;6.80;;
27402;SDS011;14862;49.494;8.530;2023-04-06T10:38:08;9.75;;;7.50;;
27402;SDS011;14862;49.494;8.530;2023-04-06T10:40:37;10.63;;;6.82;;
27402;SDS011;14862;49.494;8.530;2023-04-06T10:45:34;9.45;;;6.97;;
27402;SDS011;14862;49.494;8.530;2023-04-06T10:48:00;12.77;;;6.50;;
27402;SDS011;14862;49.494;8.530;2023-04-06T10:50:26;9.60;;;6.78;;
27402;SDS011;14862;49.494;8.530;2023-04-06T10:53:00;9.15;;;5.63;;
27402;SDS011;14862;49.494;8.530;2023-04-06T10:55:26;8.88;;;6.18;;
27402;SDS011;14862;49.494;8.530;2023-04-06T10:57:52;7.18;;;5.32;;
27402;SDS011;14862;49.494;8.530;2023-04-06T11:00:18;9.35;;;7.38;;
27402;SDS011;14862;49.494;8.530;2023-04-06T11:02:44;8.68;;;6.68;;
27402;SDS011;14862;49.494;8.530;2023-04-06T11:05:11;7.95;;;5.18;;
27402;SDS011;14862;49.494;8.530;2023-04-06T11:07:36;7.68;;;5.47;;
27402;SDS011;14862;49.494;8.530;2023-04-06T11:10:01;9.88;;;5.45;;
27402;SDS011;14862;49.494;8.530;2023-04-06T11:12:27;9.88;;;5.38;;
27402;SDS011;14862;49.494;8.530;2023-04-06T11:14:57;7.00;;;4.95;;
27402;SDS011;14862;49.494;8.530;2023-04-06T11:17:29;8.45;;;5.75;;
27402;SDS011;14862;49.494;8.530;2023-04-06T11:19:55;5.40;;;4.35;;
27402;SDS011;14862;49.494;8.530;2023-04-06T11:22:21;7.75;;;4.68;;
27402;SDS011;14862;49.494;8.530;2023-04-06T11:24:46;6.90;;;5.20;;
27402;SDS011;14862;49.494;8.530;2023-04-06T11:27:12;6.88;;;4.55;;
27402;SDS011;14862;49.494;8.530;2023-04-06T11:29:37;11.20;;;5.65;;
27402;SDS011;14862;49.494;8.530;2023-04-06T11:32:06;9.27;;;6.43;;
27402;SDS011;14862;49.494;8.530;2023-04-06T11:34:33;9.38;;;5.70;;
27402;SDS011;14862;49.494;8.530;2023-04-06T11:36:59;7.43;;;5.78;;
27402;SDS011;14862;49.494;8.530;2023-04-06T11:39:26;7.20;;;5.50;;
27402;SDS011;14862;49.494;8.530;2023-04-06T11:41:52;14.20;;;5.93;;
27402;SDS011;14862;49.494;8.530;2023-04-06T11:46:58;10.48;;;6.32;;
27402;SDS011;14862;49.494;8.530;2023-04-06T11:49:27;9.82;;;7.13;;
27402;SDS011;14862;49.494;8.530;2023-04-06T11:51:53;9.52;;;6.25;;
27402;SDS011;14862;49.494;8.530;2023-04-06T11:54:28;9.77;;;7.10;;
27402;SDS011;14862;49.494;8.530;2023-04-06T11:56:54;8.88;;;6.50;;
27402;SDS011;14862;49.494;8.530;2023-04-06T11:59:20;12.18;;;7.18;;
27402;SDS011;14862;49.494;8.530;2023-04-06T12:01:47;12.93;;;8.48;;
27402;SDS011;14862;49.494;8.530;2023-04-06T12:04:13;12.98;;;7.78;;
27402;SDS011;14862;49.494;8.530;2023-04-06T12:06:38;7.78;;;6.60;;
27402;SDS011;14862;49.494;8.530;2023-04-06T12:09:03;11.73;;;7.30;;
27402;SDS011;14862;49.494;8.530;2023-04-06T12:11:28;13.80;;;8.27;;
27402;SDS011;14862;49.494;8.530;2023-04-06T12:13:54;12.60;;;8.55;;
27402;SDS011;14862;49.494;8.530;2023-04-06T12:16:19;11.48;;;8.27;;
27402;SDS011;14862;49.494;8.530;2023-04-06T12:18:44;12.10;;;7.90;;
27402;SDS011;14862;49.494;8.530;2023-04-06T12:21:10;10.15;;;7.97;;
27402;SDS011;14862;49.494;8.530;2023-04-06T12:23:35;11.05;;;7.50;;
27402;SDS011;14862;49.494;8.530;2023-04-06T12:26:01;9.63;;;8.15;;
27402;SDS011;14862;49.494;8.530;2023-04-06T12:28:26;12.88;;;8.90;;
27402;SDS011;14862;49.494;8.530;2023-04-06T12:30:52;9.90;;;7.40;;
27402;SDS011;14862;49.494;8.530;2023-04-06T12:33:17;11.85;;;8.10;;
27402;SDS011;14862;49.494;8.530;2023-04-06T12:35:43;11.25;;;7.95;;
27402;SDS011;14862;49.494;8.530;2023-04-06T12:38:08;12.45;;;8.07;;
27402;SDS011;14862;49.494;8.530;2023-04-06T12:40:37;12.10;;;7.25;;
27402;SDS011;14862;49.494;8.530;2023-04-06T12:43:03;10.85;;;7.60;;
27402;SDS011;14862;49.494;8.530;2023-04-06T12:45:29;11.52;;;7.70;;
27402;SDS011;14862;49.494;8.530;2023-04-06T12:47:55;13.10;;;8.52;;
27402;SDS011;14862;49.494;8.530;2023-04-06T12:50:20;12.32;;;8.18;;
27402;SDS011;14862;49.494;8.530;2023-04-06T12:52:45;16.45;;;7.97;;
27402;SDS011;14862;49.494;8.530;2023-04-06T12:55:12;17.70;;;8.45;;
27402;SDS011;14862;49.494;8.530;2023-04-06T12:57:37;14.10;;;8.05;;
27402;SDS011;14862;49.494;8.530;2023-04-06T13:00:02;12.93;;;8.77;;
27402;SDS011;14862;49.494;8.530;2023-04-06T13:02:29;8.27;;;6.65;;
27402;SDS011;14862;49.494;8.530;2023-04-06T13:04:54;13.55;;;6.90;;
27402;SDS011;14862;49.494;8.530;2023-04-06T13:07:20;10.13;;;7.63;;
27402;SDS011;14862;49.494;8.530;2023-04-06T13:09:45;11.70;;;7.68;;
27402;SDS011;14862;49.494;8.530;2023-04-06T13:12:12;10.07;;;7.57;;
27402;SDS011;14862;49.494;8.530;2023-04-06T13:14:37;13.20;;;7.80;;
27402;SDS011;14862;49.494;8.530;2023-04-06T13:17:04;11.85;;;7.80;;
27402;SDS011;14862;49.494;8.530;2023-04-06T13:19:29;11.18;;;7.13;;
27402;SDS011;14862;49.494;8.530;2023-04-06T13:21:56;10.52;;;7.70;;
27402;SDS011;14862;49.494;8.530;2023-04-06T13:24:21;11.27;;;7.43;;
27402;SDS011;14862;49.494;8.530;2023-04-06T13:26:48;13.20;;;7.28;;
27402;SDS011;14862;49.494;8.530;2023-04-06T13:29:13;10.82;;;7.90;;
27402;SDS011;14862;49.494;8.530;2023-04-06T13:31:38;11.07;;;8.05;;
27402;SDS011;14862;49.494;8.530;2023-04-06T13:34:04;13.98;;;7.95;;
27402;SDS011;14862;49.494;8.530;2023-04-06T13:36:29;10.07;;;7.97;;
27402;SDS011;14862;49.494;8.530;2023-04-06T13:38:56;13.60;;;7.90;;
27402;SDS011;14862;49.494;8.530;2023-04-06T13:41:22;11.35;;;7.93;;
27402;SDS011;14862;49.494;8.530;2023-04-06T13:43:47;13.93;;;7.50;;
27402;SDS011;14862;49.494;8.530;2023-04-06T13:46:13;11.02;;;7.57;;
27402;SDS011;14862;49.494;8.530;2023-04-06T13:48:38;8.20;;;6.13;;
27402;SDS011;14862;49.494;8.530;2023-04-06T13:51:10;9.50;;;6.18;;
27402;SDS011;14862;49.494;8.530;2023-04-06T13:53:36;10.65;;;6.57;;
27402;SDS011;14862;49.494;8.530;2023-04-06T13:56:02;7.35;;;5.68;;
27402;SDS011;14862;49.494;8.530;2023-04-06T13:58:27;11.48;;;6.93;;
27402;SDS011;14862;49.494;8.530;2023-04-06T14:00:52;9.07;;;5.87;;
27402;SDS011;14862;49.494;8.530;2023-04-06T14:03:18;9.65;;;5.63;;
27402;SDS011;14862;49.494;8.530;2023-04-06T14:05:44;7.50;;;5.43;;
27402;SDS011;14862;49.494;8.530;2023-04-06T14:08:09;12.68;;;6.53;;
27402;SDS011;14862;49.494;8.530;2023-04-06T14:10:38;10.52;;;6.47;;
27402;SDS011;14862;49.494;8.530;2023-04-06T14:13:03;9.27;;;6.43;;
27402;SDS011;14862;49.494;8.530;2023-04-06T14:15:29;10.10;;;6.45;;
27402;SDS011;14862;49.494;8.530;2023-04-06T14:17:54;9.98;;;6.13;;
27402;SDS011;14862;49.494;8.530;2023-04-06T14:20:20;10.50;;;6.35;;
27402;SDS011;14862;49.494;8.530;2023-04-06T14:22:45;8.80;;;6.05;;
27402;SDS011;14862;49.494;8.530;2023-04-06T14:25:11;8.55;;;5.88;;
27402;SDS011;14862;49.494;8.530;2023-04-06T14:27:37;7.85;;;5.43;;
27402;SDS011;14862;49.494;8.530;2023-04-06T14:30:03;8.77;;;5.88;;
27402;SDS011;14862;49.494;8.530;2023-04-06T14:32:28;7.70;;;5.63;;